createdAt,value
2023-12-30T00:00:09.000Z,2.6903999999999995
2023-12-30T00:01:09.000Z,7.551999999999999
2023-12-30T00:02:09.000Z,1.9351999999999998
2023-12-30T00:03:09.000Z,3.3511999999999995
2023-12-30T00:04:10.000Z,4.72
2023-12-30T00:05:10.000Z,6.702399999999999
2023-12-30T00:06:10.000Z,4.72
2023-12-30T00:07:11.000Z,4.153599999999999
2023-12-30T00:08:11.000Z,5.6168
2023-12-30T00:09:11.000Z,2.9263999999999997
2023-12-30T00:10:11.000Z,1.6520000000000001
2023-12-30T00:11:12.000Z,4.3424
2023-12-30T00:12:12.000Z,3.4928
2023-12-30T00:13:12.000Z,2.9736
2023-12-30T00:14:12.000Z,2.6431999999999998
2023-12-30T00:15:13.000Z,4.484
2023-12-30T00:16:13.000Z,5.664
2023-12-30T00:17:13.000Z,5.7584
2023-12-30T00:18:14.000Z,3.0679999999999996
2023-12-30T00:19:14.000Z,2.832
2023-12-30T00:20:14.000Z,4.4368
2023-12-30T00:21:15.000Z,7.2688
2023-12-30T00:22:15.000Z,5.664
2023-12-30T00:23:15.000Z,3.9647999999999994
2023-12-30T00:24:16.000Z,3.9175999999999997
2023-12-30T00:25:16.000Z,4.1064
2023-12-30T00:26:16.000Z,2.9263999999999997
2023-12-30T00:27:16.000Z,3.0679999999999996
2023-12-30T00:28:17.000Z,5.333599999999999
2023-12-30T00:29:17.000Z,6.0416
2023-12-30T00:30:17.000Z,4.531199999999999
2023-12-30T00:31:18.000Z,4.578399999999999
2023-12-30T00:32:18.000Z,5.333599999999999
2023-12-30T00:33:18.000Z,4.012
2023-12-30T00:34:19.000Z,4.2951999999999995
2023-12-30T00:35:19.000Z,5.9944
2023-12-30T00:36:19.000Z,4.72
2023-12-30T00:37:20.000Z,4.578399999999999
2023-12-30T00:38:20.000Z,3.9647999999999994
2023-12-30T00:39:20.000Z,4.9559999999999995
2023-12-30T00:40:20.000Z,5.0976
2023-12-30T00:41:21.000Z,5.569599999999999
2023-12-30T00:42:21.000Z,4.2951999999999995
2023-12-30T00:43:21.000Z,4.2951999999999995
2023-12-30T00:44:22.000Z,4.8144
2023-12-30T00:45:22.000Z,4.8144
2023-12-30T00:46:22.000Z,6.466399999999999
2023-12-30T00:47:23.000Z,9.298399999999999
2023-12-30T00:48:23.000Z,9.9592
2023-12-30T00:49:23.000Z,7.08
2023-12-30T00:50:23.000Z,8.3544
2023-12-30T00:51:24.000Z,5.569599999999999
2023-12-30T00:52:24.000Z,8.637599999999999
2023-12-30T00:53:24.000Z,5.475199999999999
2023-12-30T00:54:25.000Z,7.6464
2023-12-30T00:55:25.000Z,6.2776
2023-12-30T00:56:25.000Z,5.2392
2023-12-30T00:57:26.000Z,6.655199999999999
2023-12-30T00:58:26.000Z,5.852799999999999
2023-12-30T00:59:26.000Z,4.6255999999999995
2023-12-30T01:00:27.000Z,4.9559999999999995
2023-12-30T01:01:27.000Z,4.6728
2023-12-30T01:02:27.000Z,3.3040000000000003
2023-12-30T01:03:27.000Z,5.569599999999999
2023-12-30T01:04:28.000Z,5.522399999999999
2023-12-30T01:05:28.000Z,5.0976
2023-12-30T01:06:28.000Z,2.8792
2023-12-30T01:07:29.000Z,2.832
2023-12-30T01:08:29.000Z,4.484
2023-12-30T01:09:29.000Z,4.247999999999999
2023-12-30T01:10:30.000Z,3.0208
2023-12-30T01:11:30.000Z,4.578399999999999
2023-12-30T01:12:30.000Z,4.8144
2023-12-30T01:13:30.000Z,5.0504
2023-12-30T01:14:31.000Z,4.2951999999999995
2023-12-30T01:15:31.000Z,4.6255999999999995
2023-12-30T01:16:31.000Z,3.5871999999999993
2023-12-30T01:17:32.000Z,4.153599999999999
2023-12-30T01:18:32.000Z,4.9559999999999995
2023-12-30T01:19:32.000Z,6.135999999999999
2023-12-30T01:20:32.000Z,8.024
2023-12-30T01:21:33.000Z,6.891199999999999
2023-12-30T01:22:33.000Z,7.599199999999999
2023-12-30T01:23:33.000Z,6.2304
2023-12-30T01:24:34.000Z,3.0208
2023-12-30T01:25:34.000Z,2.6431999999999998
2023-12-30T01:26:34.000Z,5.522399999999999
2023-12-30T01:27:34.000Z,6.088799999999999
2023-12-30T01:28:35.000Z,4.531199999999999
2023-12-30T01:29:35.000Z,5.003199999999999
2023-12-30T01:30:35.000Z,6.3248
2023-12-30T01:31:36.000Z,5.6168
2023-12-30T01:32:36.000Z,8.4016
2023-12-30T01:33:36.000Z,6.9384
2023-12-30T01:34:37.000Z,5.7112
2023-12-30T01:35:37.000Z,5.003199999999999
2023-12-30T01:36:37.000Z,3.9175999999999997
2023-12-30T01:37:37.000Z,5.0976
2023-12-30T01:38:38.000Z,5.569599999999999
2023-12-30T01:39:38.000Z,6.891199999999999
2023-12-30T01:40:38.000Z,5.191999999999999
2023-12-30T01:41:39.000Z,5.6168
2023-12-30T01:42:39.000Z,5.2863999999999995
2023-12-30T01:43:39.000Z,5.9944
2023-12-30T01:44:40.000Z,3.8232
2023-12-30T01:45:40.000Z,5.7584
2023-12-30T01:46:40.000Z,5.2392
2023-12-30T01:47:40.000Z,5.380799999999999
2023-12-30T01:48:41.000Z,4.861599999999999
2023-12-30T01:49:41.000Z,5.569599999999999
2023-12-30T01:50:41.000Z,4.72
2023-12-30T01:51:42.000Z,3.1624
2023-12-30T01:52:42.000Z,2.7847999999999997
2023-12-30T01:53:42.000Z,3.0679999999999996
2023-12-30T01:54:43.000Z,3.9647999999999994
2023-12-30T01:55:43.000Z,3.3040000000000003
2023-12-30T01:56:43.000Z,3.4455999999999993
2023-12-30T01:57:43.000Z,4.4368
2023-12-30T01:58:44.000Z,5.522399999999999
2023-12-30T01:59:44.000Z,5.427999999999999
2023-12-30T02:00:44.000Z,3.2567999999999997
2023-12-30T02:01:45.000Z,5.144799999999999
2023-12-30T02:02:45.000Z,4.0592
2023-12-30T02:03:45.000Z,2.832
2023-12-30T02:04:46.000Z,0.8967999999999998
2023-12-30T02:05:46.000Z,2.7375999999999996
2023-12-30T02:06:46.000Z,1.8879999999999997
2023-12-30T02:07:46.000Z,2.36
2023-12-30T02:08:47.000Z,4.012
2023-12-30T02:09:47.000Z,2.1239999999999997
2023-12-30T02:10:47.000Z,2.6431999999999998
2023-12-30T02:11:48.000Z,2.1712
2023-12-30T02:12:48.000Z,2.2184
2023-12-30T02:13:48.000Z,2.4072
2023-12-30T02:14:49.000Z,2.7847999999999997
2023-12-30T02:15:49.000Z,5.0504
2023-12-30T02:16:49.000Z,4.6728
2023-12-30T02:17:49.000Z,3.4455999999999993
2023-12-30T02:18:50.000Z,3.9175999999999997
2023-12-30T02:19:50.000Z,2.2184
2023-12-30T02:20:50.000Z,5.003199999999999
2023-12-30T02:21:51.000Z,4.861599999999999
2023-12-30T02:22:51.000Z,3.3983999999999996
2023-12-30T02:23:51.000Z,4.012
2023-12-30T02:24:51.000Z,3.2567999999999997
2023-12-30T02:25:52.000Z,3.7759999999999994
2023-12-30T02:26:52.000Z,3.3983999999999996
2023-12-30T02:27:52.000Z,4.6255999999999995
2023-12-30T02:28:53.000Z,4.861599999999999
2023-12-30T02:29:53.000Z,4.0592
2023-12-30T02:30:53.000Z,3.0679999999999996
2023-12-30T02:31:54.000Z,2.5959999999999996
2023-12-30T02:32:54.000Z,2.9736
2023-12-30T02:33:54.000Z,2.7847999999999997
2023-12-30T02:34:55.000Z,2.3127999999999997
2023-12-30T02:35:55.000Z,2.2184
2023-12-30T02:36:55.000Z,2.5959999999999996
2023-12-30T02:37:55.000Z,2.4544
2023-12-30T02:38:56.000Z,1.9823999999999997
2023-12-30T02:39:56.000Z,1.2272
2023-12-30T02:40:56.000Z,1.8408
2023-12-30T02:41:57.000Z,1.7935999999999996
2023-12-30T02:42:57.000Z,2.5015999999999994
2023-12-30T02:43:57.000Z,1.3215999999999999
2023-12-30T02:44:58.000Z,2.0296
2023-12-30T02:45:58.000Z,2.6903999999999995
2023-12-30T02:46:58.000Z,3.4928
2023-12-30T02:47:58.000Z,4.0592
2023-12-30T02:48:59.000Z,4.1064
2023-12-30T02:49:59.000Z,4.2951999999999995
2023-12-30T02:50:59.000Z,3.5871999999999993
2023-12-30T02:52:00.000Z,2.9263999999999997
2023-12-30T02:53:00.000Z,2.1239999999999997
2023-12-30T02:54:00.000Z,4.4368
2023-12-30T02:55:01.000Z,2.5488
2023-12-30T02:56:01.000Z,3.6344
2023-12-30T02:57:01.000Z,2.5488
2023-12-30T02:58:02.000Z,3.0208
2023-12-30T02:59:02.000Z,3.8703999999999996
2023-12-30T03:00:03.000Z,0.0
2023-12-30T03:01:04.000Z,2.9736
2023-12-30T03:02:04.000Z,2.3127999999999997
2023-12-30T03:03:04.000Z,1.6991999999999998
2023-12-30T03:04:05.000Z,2.7847999999999997
2023-12-30T03:05:05.000Z,3.4928
2023-12-30T03:06:05.000Z,4.2951999999999995
2023-12-30T03:07:06.000Z,6.9856
2023-12-30T03:08:06.000Z,7.8824
2023-12-30T03:09:06.000Z,6.5608
2023-12-30T03:10:06.000Z,7.8824
2023-12-30T03:11:07.000Z,11.1864
2023-12-30T03:12:07.000Z,5.191999999999999
2023-12-30T03:13:07.000Z,5.7112
2023-12-30T03:14:08.000Z,10.761599999999998
2023-12-30T03:15:08.000Z,7.174399999999999
2023-12-30T03:16:08.000Z,5.003199999999999
2023-12-30T03:17:09.000Z,6.702399999999999
2023-12-30T03:18:09.000Z,8.590399999999999
2023-12-30T03:19:09.000Z,10.0536
2023-12-30T03:20:09.000Z,6.6080000000000005
2023-12-30T03:21:10.000Z,8.4016
2023-12-30T03:22:10.000Z,8.637599999999999
2023-12-30T03:23:10.000Z,8.495999999999999
2023-12-30T03:24:11.000Z,4.9559999999999995
2023-12-30T03:25:11.000Z,5.7584
2023-12-30T03:26:11.000Z,10.383999999999999
2023-12-30T03:27:12.000Z,6.9384
2023-12-30T03:28:12.000Z,6.1831999999999985
2023-12-30T03:29:12.000Z,8.495999999999999
2023-12-30T03:30:13.000Z,6.3248
2023-12-30T03:31:13.000Z,6.655199999999999
2023-12-30T03:32:13.000Z,8.1656
2023-12-30T03:33:13.000Z,7.316
2023-12-30T03:34:14.000Z,5.7584
2023-12-30T03:35:14.000Z,7.2688
2023-12-30T03:36:14.000Z,7.6464
2023-12-30T03:37:15.000Z,4.9088
2023-12-30T03:38:15.000Z,3.2567999999999997
2023-12-30T03:39:15.000Z,3.9647999999999994
2023-12-30T03:40:16.000Z,4.0592
2023-12-30T03:41:16.000Z,4.0592
2023-12-30T03:42:16.000Z,7.221599999999999
2023-12-30T03:43:16.000Z,9.581599999999998
2023-12-30T03:44:17.000Z,4.012
2023-12-30T03:45:17.000Z,5.664
2023-12-30T03:46:17.000Z,7.0328
2023-12-30T03:47:18.000Z,5.0976
2023-12-30T03:48:18.000Z,3.54
2023-12-30T03:49:18.000Z,3.0679999999999996
2023-12-30T03:50:19.000Z,5.522399999999999
2023-12-30T03:51:19.000Z,6.843999999999999
2023-12-30T03:52:19.000Z,8.1656
2023-12-30T03:53:19.000Z,6.655199999999999
2023-12-30T03:54:20.000Z,4.8144
2023-12-30T03:55:20.000Z,5.522399999999999
2023-12-30T03:56:20.000Z,4.247999999999999
2023-12-30T03:57:21.000Z,3.6344
2023-12-30T03:58:21.000Z,4.1064
2023-12-30T03:59:21.000Z,4.6728
2023-12-30T04:00:22.000Z,3.8232
2023-12-30T04:01:22.000Z,5.380799999999999
2023-12-30T04:02:22.000Z,5.7584
2023-12-30T04:03:22.000Z,4.531199999999999
2023-12-30T04:04:23.000Z,6.9856
2023-12-30T04:05:23.000Z,5.9944
2023-12-30T04:06:23.000Z,10.0536
2023-12-30T04:07:24.000Z,6.088799999999999
2023-12-30T04:08:24.000Z,4.3896
2023-12-30T04:09:24.000Z,3.5871999999999993
2023-12-30T04:10:25.000Z,6.796799999999999
2023-12-30T04:11:25.000Z,4.153599999999999
2023-12-30T04:12:25.000Z,6.466399999999999
2023-12-30T04:13:26.000Z,8.0712
2023-12-30T04:14:26.000Z,6.371999999999999
2023-12-30T04:15:27.000Z,6.6080000000000005
2023-12-30T04:16:28.000Z,6.702399999999999
2023-12-30T04:17:28.000Z,7.316
2023-12-30T04:18:28.000Z,10.2424
2023-12-30T04:19:29.000Z,7.316
2023-12-30T04:20:29.000Z,6.135999999999999
2023-12-30T04:21:29.000Z,6.9384
2023-12-30T04:22:29.000Z,5.380799999999999
2023-12-30T04:23:30.000Z,5.8999999999999995
2023-12-30T04:24:30.000Z,5.7112
2023-12-30T04:25:30.000Z,8.1184
2023-12-30T04:26:31.000Z,6.513599999999999
2023-12-30T04:27:31.000Z,4.484
2023-12-30T04:28:31.000Z,4.9559999999999995
2023-12-30T04:29:32.000Z,4.7672
2023-12-30T04:30:32.000Z,6.2776
2023-12-30T04:31:32.000Z,4.861599999999999
2023-12-30T04:32:32.000Z,6.796799999999999
2023-12-30T04:33:33.000Z,5.522399999999999
2023-12-30T04:34:33.000Z,4.484
2023-12-30T04:35:33.000Z,6.749599999999999
2023-12-30T04:36:34.000Z,4.6728
2023-12-30T04:37:34.000Z,6.655199999999999
2023-12-30T04:38:34.000Z,5.003199999999999
2023-12-30T04:39:35.000Z,5.6168
2023-12-30T04:40:35.000Z,6.2776
2023-12-30T04:41:35.000Z,4.2008
2023-12-30T04:42:35.000Z,3.9175999999999997
2023-12-30T04:43:36.000Z,5.2863999999999995
2023-12-30T04:44:36.000Z,4.578399999999999
2023-12-30T04:45:36.000Z,3.54
2023-12-30T04:46:37.000Z,3.54
2023-12-30T04:47:37.000Z,5.333599999999999
2023-12-30T04:48:37.000Z,5.427999999999999
2023-12-30T04:49:37.000Z,4.72
2023-12-30T04:50:38.000Z,3.6344
2023-12-30T04:51:38.000Z,2.6431999999999998
2023-12-30T04:52:38.000Z,5.7584
2023-12-30T04:53:39.000Z,5.805599999999998
2023-12-30T04:54:39.000Z,4.0592
2023-12-30T04:55:39.000Z,4.2008
2023-12-30T04:56:40.000Z,9.723199999999999
2023-12-30T04:57:40.000Z,3.4455999999999993
2023-12-30T04:58:40.000Z,3.7759999999999994
2023-12-30T04:59:40.000Z,1.1327999999999998
2023-12-30T05:00:41.000Z,4.9088
2023-12-30T05:01:41.000Z,4.1064
2023-12-30T05:02:41.000Z,7.740799999999999
2023-12-30T05:03:42.000Z,4.6255999999999995
2023-12-30T05:04:42.000Z,7.174399999999999
2023-12-30T05:05:42.000Z,6.9856
2023-12-30T05:06:42.000Z,7.316
2023-12-30T05:07:43.000Z,4.2951999999999995
2023-12-30T05:08:43.000Z,2.5488
2023-12-30T05:09:43.000Z,4.3896
2023-12-30T05:10:44.000Z,5.333599999999999
2023-12-30T05:11:44.000Z,5.9944
2023-12-30T05:12:44.000Z,5.003199999999999
2023-12-30T05:13:45.000Z,5.664
2023-12-30T05:14:45.000Z,4.6255999999999995
2023-12-30T05:15:45.000Z,4.6728
2023-12-30T05:16:45.000Z,1.9351999999999998
2023-12-30T05:17:46.000Z,4.3896
2023-12-30T05:18:46.000Z,4.012
2023-12-30T05:19:46.000Z,7.4104
2023-12-30T05:20:47.000Z,5.9944
2023-12-30T05:21:47.000Z,4.1064
2023-12-30T05:22:47.000Z,5.0504
2023-12-30T05:23:48.000Z,3.4928
2023-12-30T05:24:48.000Z,5.8999999999999995
2023-12-30T05:25:48.000Z,7.08
2023-12-30T05:26:48.000Z,5.333599999999999
2023-12-30T05:27:49.000Z,3.4928
2023-12-30T05:28:49.000Z,4.8144
2023-12-30T05:29:49.000Z,4.0592
2023-12-30T05:30:50.000Z,4.7672
2023-12-30T05:31:50.000Z,3.4928
2023-12-30T05:32:50.000Z,5.569599999999999
2023-12-30T05:33:50.000Z,3.5871999999999993
2023-12-30T05:34:51.000Z,0.0
2023-12-30T05:35:51.000Z,3.1152
2023-12-30T05:36:51.000Z,4.012
2023-12-30T05:37:52.000Z,1.8879999999999997
2023-12-30T05:38:52.000Z,2.5015999999999994
2023-12-30T05:39:52.000Z,3.5871999999999993
2023-12-30T05:40:52.000Z,3.3983999999999996
2023-12-30T05:41:53.000Z,1.6991999999999998
2023-12-30T05:42:53.000Z,3.2095999999999996
2023-12-30T05:43:53.000Z,2.36
2023-12-30T05:44:54.000Z,2.4072
2023-12-30T05:45:54.000Z,2.832
2023-12-30T05:46:54.000Z,2.0767999999999995
2023-12-30T05:47:55.000Z,5.2863999999999995
2023-12-30T05:48:55.000Z,3.8232
2023-12-30T05:49:55.000Z,1.0856
2023-12-30T05:50:56.000Z,1.7464
2023-12-30T05:51:56.000Z,3.6344
2023-12-30T05:52:56.000Z,3.6344
2023-12-30T05:53:57.000Z,3.0679999999999996
2023-12-30T05:54:57.000Z,1.7935999999999996
2023-12-30T05:55:57.000Z,2.5015999999999994
2023-12-30T05:56:58.000Z,2.5015999999999994
2023-12-30T05:57:58.000Z,2.1712
2023-12-30T05:58:58.000Z,3.1152
2023-12-30T05:59:59.000Z,4.4368
2023-12-30T06:00:59.000Z,4.2008
2023-12-30T06:01:59.000Z,5.144799999999999
2023-12-30T06:02:59.000Z,4.012
2023-12-30T06:04:00.000Z,2.6903999999999995
2023-12-30T06:05:00.000Z,2.7847999999999997
2023-12-30T06:06:00.000Z,2.1239999999999997
2023-12-30T06:07:01.000Z,1.5104
2023-12-30T06:08:01.000Z,1.9823999999999997
2023-12-30T06:09:01.000Z,1.8408
2023-12-30T06:10:01.000Z,1.18
2023-12-30T06:11:02.000Z,2.0767999999999995
2023-12-30T06:12:02.000Z,0.0
2023-12-30T06:13:02.000Z,1.3687999999999998
2023-12-30T06:14:03.000Z,2.36
2023-12-30T06:15:03.000Z,3.5871999999999993
2023-12-30T06:16:03.000Z,3.1152
2023-12-30T06:17:03.000Z,0.4719999999999999
2023-12-30T06:18:04.000Z,1.5104
2023-12-30T06:19:04.000Z,2.1239999999999997
2023-12-30T06:20:04.000Z,2.5959999999999996
2023-12-30T06:21:05.000Z,2.2184
2023-12-30T06:22:05.000Z,4.153599999999999
2023-12-30T06:23:05.000Z,2.9736
2023-12-30T06:24:06.000Z,3.0679999999999996
2023-12-30T06:25:06.000Z,2.5015999999999994
2023-12-30T06:26:06.000Z,3.3040000000000003
2023-12-30T06:27:07.000Z,3.0208
2023-12-30T06:28:07.000Z,6.5608
2023-12-30T06:29:12.000Z,3.8232
2023-12-30T06:30:12.000Z,4.4368
2023-12-30T06:31:13.000Z,4.6728
2023-12-30T06:32:13.000Z,5.0504
2023-12-30T06:33:13.000Z,3.0679999999999996
2023-12-30T06:34:14.000Z,3.2095999999999996
2023-12-30T06:35:14.000Z,3.0679999999999996
2023-12-30T06:36:14.000Z,2.1712
2023-12-30T06:37:15.000Z,3.3040000000000003
2023-12-30T06:38:15.000Z,2.4072
2023-12-30T06:39:15.000Z,3.1152
2023-12-30T06:40:15.000Z,2.2655999999999996
2023-12-30T06:41:16.000Z,0.8967999999999998
2023-12-30T06:42:16.000Z,2.36
2023-12-30T06:43:16.000Z,1.0383999999999998
2023-12-30T06:44:17.000Z,2.9263999999999997
2023-12-30T06:45:17.000Z,1.18
2023-12-30T06:46:17.000Z,1.7935999999999996
2023-12-30T06:47:17.000Z,1.6520000000000001
2023-12-30T06:48:18.000Z,2.2655999999999996
2023-12-30T06:49:18.000Z,2.4072
2023-12-30T06:50:18.000Z,0.6607999999999999
2023-12-30T06:51:19.000Z,0.6607999999999999
2023-12-30T06:52:19.000Z,1.0383999999999998
2023-12-30T06:53:19.000Z,1.0856
2023-12-30T06:54:19.000Z,1.6991999999999998
2023-12-30T06:55:20.000Z,2.0296
2023-12-30T06:56:20.000Z,3.3983999999999996
2023-12-30T06:57:20.000Z,2.0296
2023-12-30T06:58:21.000Z,1.5576
2023-12-30T06:59:21.000Z,3.3040000000000003
2023-12-30T07:00:21.000Z,1.9351999999999998
2023-12-30T07:01:21.000Z,3.6344
2023-12-30T07:02:22.000Z,2.5959999999999996
2023-12-30T07:03:22.000Z,2.9736
2023-12-30T07:04:22.000Z,0.6607999999999999
2023-12-30T07:05:23.000Z,1.8879999999999997
2023-12-30T07:06:23.000Z,0.28319999999999995
2023-12-30T07:07:23.000Z,0.8495999999999999
2023-12-30T07:08:23.000Z,0.9911999999999999
2023-12-30T07:09:24.000Z,2.4072
2023-12-30T07:10:24.000Z,1.0856
2023-12-30T07:11:24.000Z,2.832
2023-12-30T07:12:25.000Z,1.6047999999999998
2023-12-30T07:13:25.000Z,3.7759999999999994
2023-12-30T07:14:25.000Z,1.9823999999999997
2023-12-30T07:15:26.000Z,4.2951999999999995
2023-12-30T07:16:26.000Z,2.3127999999999997
2023-12-30T07:17:26.000Z,2.2655999999999996
2023-12-30T07:18:26.000Z,2.9263999999999997
2023-12-30T07:19:27.000Z,1.9351999999999998
2023-12-30T07:20:27.000Z,1.7464
2023-12-30T07:21:27.000Z,2.2184
2023-12-30T07:22:28.000Z,0.1888
2023-12-30T07:23:28.000Z,0.0472
2023-12-30T07:24:28.000Z,0.9911999999999999
2023-12-30T07:25:29.000Z,0.4719999999999999
2023-12-30T07:26:29.000Z,0.5191999999999999
2023-12-30T07:27:29.000Z,0.28319999999999995
2023-12-30T07:28:29.000Z,2.1712
2023-12-30T07:29:30.000Z,0.3776
2023-12-30T07:30:30.000Z,1.8879999999999997
2023-12-30T07:31:30.000Z,1.416
2023-12-30T07:32:31.000Z,0.9439999999999998
2023-12-30T07:33:31.000Z,2.3127999999999997
2023-12-30T07:34:31.000Z,1.2272
2023-12-30T07:35:31.000Z,2.1239999999999997
2023-12-30T07:36:32.000Z,1.9351999999999998
2023-12-30T07:37:32.000Z,1.6047999999999998
2023-12-30T07:38:32.000Z,2.36
2023-12-30T07:39:33.000Z,2.36
2023-12-30T07:40:33.000Z,3.2567999999999997
2023-12-30T07:41:33.000Z,1.6991999999999998
2023-12-30T07:42:34.000Z,2.832
2023-12-30T07:43:34.000Z,1.4631999999999998
2023-12-30T07:44:34.000Z,2.4544
2023-12-30T07:45:34.000Z,3.8703999999999996
2023-12-30T07:46:35.000Z,3.0679999999999996
2023-12-30T07:47:35.000Z,2.9736
2023-12-30T07:48:35.000Z,2.9263999999999997
2023-12-30T07:49:36.000Z,2.9263999999999997
2023-12-30T07:50:36.000Z,2.1239999999999997
2023-12-30T07:51:36.000Z,2.8792
2023-12-30T07:52:37.000Z,1.6047999999999998
2023-12-30T07:53:37.000Z,3.4455999999999993
2023-12-30T07:54:37.000Z,3.2095999999999996
2023-12-30T07:55:38.000Z,3.8703999999999996
2023-12-30T07:56:38.000Z,4.247999999999999
2023-12-30T07:57:38.000Z,6.135999999999999
2023-12-30T07:58:38.000Z,3.7759999999999994
2023-12-30T07:59:39.000Z,5.191999999999999
2023-12-30T08:00:39.000Z,5.7584
2023-12-30T08:01:39.000Z,6.5608
2023-12-30T08:02:40.000Z,5.003199999999999
2023-12-30T08:03:40.000Z,3.4455999999999993
2023-12-30T08:04:40.000Z,4.012
2023-12-30T08:05:40.000Z,6.513599999999999
2023-12-30T08:06:41.000Z,9.251199999999999
2023-12-30T08:07:41.000Z,6.2776
2023-12-30T08:08:41.000Z,5.333599999999999
2023-12-30T08:09:42.000Z,4.1064
2023-12-30T08:10:42.000Z,5.2392
2023-12-30T08:11:42.000Z,5.6168
2023-12-30T08:12:42.000Z,4.6255999999999995
2023-12-30T08:13:43.000Z,5.7584
2023-12-30T08:14:43.000Z,4.012
2023-12-30T08:15:43.000Z,5.380799999999999
2023-12-30T08:16:44.000Z,8.4488
2023-12-30T08:17:44.000Z,5.7584
2023-12-30T08:18:44.000Z,4.012
2023-12-30T08:19:45.000Z,6.466399999999999
2023-12-30T08:20:45.000Z,3.7759999999999994
2023-12-30T08:21:45.000Z,5.191999999999999
2023-12-30T08:22:45.000Z,5.2863999999999995
2023-12-30T08:23:46.000Z,2.8792
2023-12-30T08:24:46.000Z,5.380799999999999
2023-12-30T08:25:46.000Z,5.333599999999999
2023-12-30T08:26:47.000Z,6.9856
2023-12-30T08:27:47.000Z,2.832
2023-12-30T08:28:47.000Z,4.6255999999999995
2023-12-30T08:29:47.000Z,4.8144
2023-12-30T08:30:48.000Z,5.0504
2023-12-30T08:31:48.000Z,5.569599999999999
2023-12-30T08:32:48.000Z,4.153599999999999
2023-12-30T08:33:49.000Z,4.9559999999999995
2023-12-30T08:34:49.000Z,6.135999999999999
2023-12-30T08:35:49.000Z,3.8232
2023-12-30T08:36:50.000Z,5.664
2023-12-30T08:37:50.000Z,5.427999999999999
2023-12-30T08:38:50.000Z,4.2008
2023-12-30T08:39:51.000Z,5.2863999999999995
2023-12-30T08:40:56.000Z,4.6728
2023-12-30T08:41:56.000Z,4.6728
2023-12-30T08:42:56.000Z,3.6816
2023-12-30T08:43:57.000Z,5.333599999999999
2023-12-30T08:44:57.000Z,4.4368
2023-12-30T08:45:57.000Z,3.4928
2023-12-30T08:46:58.000Z,3.0679999999999996
2023-12-30T08:47:58.000Z,5.427999999999999
2023-12-30T08:48:58.000Z,3.3040000000000003
2023-12-30T08:49:58.000Z,2.1712
2023-12-30T08:50:59.000Z,4.012
2023-12-30T08:51:59.000Z,6.5608
2023-12-30T08:52:59.000Z,7.316
2023-12-30T08:54:00.000Z,5.9472
2023-12-30T08:55:00.000Z,8.2128
2023-12-30T08:56:00.000Z,3.9175999999999997
2023-12-30T08:57:01.000Z,5.0504
2023-12-30T08:58:01.000Z,5.2392
2023-12-30T08:59:01.000Z,5.191999999999999
2023-12-30T09:00:01.000Z,5.569599999999999
2023-12-30T09:01:02.000Z,3.8703999999999996
2023-12-30T09:02:02.000Z,4.6255999999999995
2023-12-30T09:03:02.000Z,5.6168
2023-12-30T09:04:03.000Z,6.513599999999999
2023-12-30T09:05:03.000Z,5.7112
2023-12-30T09:06:03.000Z,5.8999999999999995
2023-12-30T09:07:03.000Z,4.2008
2023-12-30T09:08:04.000Z,5.7112
2023-12-30T09:09:04.000Z,5.333599999999999
2023-12-30T09:10:04.000Z,3.8232
2023-12-30T09:11:05.000Z,5.0504
2023-12-30T09:12:05.000Z,4.4368
2023-12-30T09:13:05.000Z,5.569599999999999
2023-12-30T09:14:06.000Z,3.3040000000000003
2023-12-30T09:15:06.000Z,6.3248
2023-12-30T09:16:06.000Z,7.4575999999999985
2023-12-30T09:17:07.000Z,4.578399999999999
2023-12-30T09:18:07.000Z,9.3456
2023-12-30T09:19:07.000Z,6.2304
2023-12-30T09:20:07.000Z,4.012
2023-12-30T09:21:08.000Z,7.6464
2023-12-30T09:22:08.000Z,3.3040000000000003
2023-12-30T09:23:08.000Z,5.427999999999999
2023-12-30T09:24:09.000Z,5.7584
2023-12-30T09:25:09.000Z,9.44
2023-12-30T09:26:09.000Z,7.599199999999999
2023-12-30T09:27:10.000Z,6.3248
2023-12-30T09:28:10.000Z,6.135999999999999
2023-12-30T09:29:10.000Z,7.316
2023-12-30T09:30:10.000Z,4.153599999999999
2023-12-30T09:31:11.000Z,4.6255999999999995
2023-12-30T09:32:11.000Z,4.531199999999999
2023-12-30T09:33:11.000Z,5.2863999999999995
2023-12-30T09:34:12.000Z,5.380799999999999
2023-12-30T09:35:12.000Z,4.531199999999999
2023-12-30T09:36:12.000Z,6.3248
2023-12-30T09:37:13.000Z,5.8999999999999995
2023-12-30T09:38:13.000Z,5.0976
2023-12-30T09:39:13.000Z,7.08
2023-12-30T09:40:14.000Z,5.144799999999999
2023-12-30T09:41:14.000Z,6.702399999999999
2023-12-30T09:42:14.000Z,5.191999999999999
2023-12-30T09:43:14.000Z,4.3424
2023-12-30T09:44:15.000Z,0.0
2023-12-30T09:45:15.000Z,5.427999999999999
2023-12-30T09:46:15.000Z,3.8232
2023-12-30T09:47:16.000Z,3.6344
2023-12-30T09:48:16.000Z,6.419199999999999
2023-12-30T09:49:16.000Z,5.003199999999999
2023-12-30T09:50:17.000Z,2.9736
2023-12-30T09:51:17.000Z,5.7112
2023-12-30T09:52:18.000Z,6.1831999999999985
2023-12-30T09:53:18.000Z,3.7287999999999992
2023-12-30T09:54:18.000Z,2.8792
2023-12-30T09:55:19.000Z,6.419199999999999
2023-12-30T09:56:19.000Z,7.08
2023-12-30T09:57:19.000Z,4.0592
2023-12-30T09:58:20.000Z,6.3248
2023-12-30T09:59:20.000Z,6.9384
2023-12-30T10:00:20.000Z,6.9856
2023-12-30T10:01:21.000Z,8.1656
2023-12-30T10:02:21.000Z,6.0416
2023-12-30T10:03:21.000Z,4.6728
2023-12-30T10:04:21.000Z,4.3424
2023-12-30T10:05:22.000Z,4.72
2023-12-30T10:06:22.000Z,7.0328
2023-12-30T10:07:22.000Z,5.8999999999999995
2023-12-30T10:08:23.000Z,8.024
2023-12-30T10:09:23.000Z,6.3248
2023-12-30T10:10:23.000Z,6.9856
2023-12-30T10:11:24.000Z,4.4368
2023-12-30T10:12:24.000Z,9.062399999999998
2023-12-30T10:13:24.000Z,5.805599999999998
2023-12-30T10:14:24.000Z,3.1152
2023-12-30T10:15:25.000Z,3.6344
2023-12-30T10:16:25.000Z,4.72
2023-12-30T10:17:25.000Z,6.655199999999999
2023-12-30T10:18:26.000Z,5.7112
2023-12-30T10:19:26.000Z,5.0504
2023-12-30T10:20:26.000Z,3.7759999999999994
2023-12-30T10:21:27.000Z,3.4455999999999993
2023-12-30T10:22:27.000Z,3.4928
2023-12-30T10:23:27.000Z,3.3040000000000003
2023-12-30T10:24:27.000Z,3.4928
2023-12-30T10:25:28.000Z,5.2863999999999995
2023-12-30T10:26:28.000Z,3.9647999999999994
2023-12-30T10:27:28.000Z,3.3511999999999995
2023-12-30T10:28:28.000Z,5.0976
2023-12-30T10:29:29.000Z,8.3544
2023-12-30T10:30:29.000Z,5.0504
2023-12-30T10:31:29.000Z,3.5871999999999993
2023-12-30T10:32:30.000Z,2.8792
2023-12-30T10:33:30.000Z,5.7584
2023-12-30T10:34:30.000Z,5.0504
2023-12-30T10:35:31.000Z,3.7759999999999994